Αναφορές METAR από Ελληνικά Αεροδρόμια

Σε αυτή τη σελίδα, μπορείτε να παρακολουθείτε τις αναφορές METAR που προέρχονται από τα κυριότερα αεροδρόμια της Ελλάδας. Το περιεχόμενο αποκωδικοποιείται, οπτικοποιείται και γίνεται κατανοητό από τον καθένα με τη χρήση του όμορφου δίγλωσσου γραφικού περιβάλλοντος του meteothes.gr!

Η αρχική κωδικοποιημένη αναφορά, συμπεριλαμβάνεται επίσης στο κάτω μέρος. Σε όποια καθεστερεί η ενημέρωση, το προειδοποιητικό μήνυμα "Μη ενημερωμένο METAR!" εμφανίζεται στο πάνω μέρος της με κόκκινα γράμματα.

Εχουν προστεθεί επίσης δύο αεροδρόμια από γειτονικές χώρες, την Οχρίδα(ΠΓΔΜ) και την Σόφια(Βουλγαρία) για να ελέγχουμε την εξέλιξη των ψυχρών εισβολών από τα Βόρεια!

LGTS - Thessaloniki/Makedonia-Elev 7m
Απόσταση από meteothes.gr: Ν 13km
Ενημερώθηκε: 16/08/2018 12:50
Διάσπαρτα Nέφη
Διάσπαρτα Nέφη
 Ανεμος από ΔΒΔ
Ανεμος: ΔΒΔ 17 km/h
Θερμοκρασία: 29°C
Δείκτη Δυσφορίας: 29°C
Σημ. Δρόσου: 18°C
Υγρασία: 51%
Βαρόμετρο: 1012 hPa
Νέφωση: Διάσπαρτα Nέφη
Ορατότητα: 10 km
Λεπτομέρειες Νεφών: Διάσπαρτα Nέφη 762 m
2018/08/16 09:50 LGTS 160950Z 30009KT 9999 FEW025 29/18 Q1012 NOSIG
LGAV - Athens/Elef. Venizelos-Elev 94m
Απόσταση από meteothes.gr: ΝΝΑ 312km
Ενημερώθηκε: 16/08/2018 12:50
Διάσπαρτα Nέφη
Διάσπαρτα Nέφη
 Ανεμος από ΒΒΑ
Ανεμος: ΒΒΑ 22 km/h
Θερμοκρασία: 32°C
Σημ. Δρόσου: 12°C
Υγρασία: 29%
Βαρόμετρο: 1011 hPa
Νέφωση: Διάσπαρτα Nέφη
Ορατότητα: 10 km
Λεπτομέρειες Νεφών: Διάσπαρτα Nέφη 914 m
2018/08/16 09:50 LGAV 160950Z 03012KT 350V060 9999 FEW030 32/12 Q1011 NOSIG
 
LGAL - Alexandroupolis-Elev 3m
Απόσταση από meteothes.gr: Α 251km
Ενημερώθηκε: 16/08/2018 12:50
Διάσπαρτα Nέφη
Διάσπαρτα Nέφη
 Ανεμος από ΒΑ
Ανεμος: ΒΑ 24 km/h
Θερμοκρασία: 31°C
Σημ. Δρόσου: 13°C
Υγρασία: 33%
Βαρόμετρο: 1010 hPa
Νέφωση: Διάσπαρτα Nέφη
Ορατότητα: 10 km
Λεπτομέρειες Νεφών: Διάσπαρτα Nέφη 762 m
2018/08/16 09:50 LGAL 160950Z 04013KT 9999 FEW025 31/13 Q1010
LGKV - Kavala/Crysoupolis-Elev 5m
Απόσταση από meteothes.gr: ΑΒΑ 144km
Ενημερώθηκε: 16/08/2018 12:50
Διάσπαρτα Nέφη
Διάσπαρτα Nέφη
 Ανεμος από ΝΔ
Ανεμος: ΝΔ 17 km/h
Θερμοκρασία: 31°C
Δείκτη Δυσφορίας: 31°C
Σημ. Δρόσου: 16°C
Υγρασία: 40%
Βαρόμετρο: 1010 hPa
Νέφωση: Διάσπαρτα Nέφη
Ορατότητα: 10 km
Λεπτομέρειες Νεφών: Διάσπαρτα Nέφη 914 m
2018/08/16 09:50 LGKV 160950Z 22009KT 9999 FEW030 31/16 Q1010
 
LGSK - Skiathos Island-Elev 15m
Απόσταση από meteothes.gr: ΝΝΑ 168km
Ενημερώθηκε: 16/08/2018 12:50
Διάσπαρτα Nέφη
Διάσπαρτα Nέφη
 Ανεμος από Β
Ανεμος: Β 13 km/h
Θερμοκρασία: 28°C
Δείκτη Δυσφορίας: 30°C
Σημ. Δρόσου: 22°C
Υγρασία: 70%
Βαρόμετρο: 1011 hPa
Νέφωση: Διάσπαρτα Nέφη
Ορατότητα: 10 km
Λεπτομέρειες Νεφών: Διάσπαρτα Nέφη 610 m
2018/08/16 09:50 LGSK 160950Z 36007KT 9999 FEW020 28/22 Q1011
LGLM - Limnos Island-Elev 5m
Απόσταση από meteothes.gr: ΑΝΑ 210km
Ενημερώθηκε: 16/08/2018 12:50
Αίθριος
Αίθριος
 Ανεμος από ΒΒΑ
Ανεμος: ΒΒΑ 24 km/h
Θερμοκρασία: 29°C
Δείκτη Δυσφορίας: 29°C
Σημ. Δρόσου: 15°C
Υγρασία: 43%
Βαρόμετρο: 1010 hPa
Συνθήκες: Αίθριος
Ορατότητα: πάνω από 10 km
2018/08/16 09:50 LGLM 160950Z 03013KT CAVOK 29/15 Q1010
 
LGMT - Mitilini Island-Elev 17m
Απόσταση από meteothes.gr: ΑΝΑ 358km
Ενημερώθηκε: 16/08/2018 12:50
Αίθριος
Αίθριος
 Ανεμος από Β
Ανεμος: Β 7 km/h
Θερμοκρασία: 27°C
Δείκτη Δυσφορίας: 29°C
Σημ. Δρόσου: 20°C
Υγρασία: 66%
Βαρόμετρο: 1009 hPa
Συνθήκες: Αίθριος
Ορατότητα: πάνω από 10 km
2018/08/16 09:50 LGMT 160950Z 01004KT CAVOK 27/20 Q1009
LGSY - Skiros Island-Elev 15m
Απόσταση από meteothes.gr: ΝΑ 227km
Ενημερώθηκε: 16/08/2018 12:50
Αίθριος
Αίθριος
 Ανεμος από Β
Ανεμος: Β 22 km/h
Θερμοκρασία: 28°C
Δείκτη Δυσφορίας: 29°C
Σημ. Δρόσου: 19°C
Υγρασία: 58%
Βαρόμετρο: 1011 hPa
Συνθήκες: Αίθριος
Ορατότητα: πάνω από 10 km
2018/08/16 09:50 LGSY 160950Z 35012KT CAVOK 28/19 Q1011 RMK SCT180 BLU
 
LGKZ - Kozani-Elev 628m
Απόσταση από meteothes.gr: ΔΝΔ 102km
Ενημερώθηκε: 16/08/2018 12:50
Μερικώς νεφελώδης
Μερικώς νεφελώδης
 Ανεμος από άπνοια
Ανεμος: άπνοια
Θερμοκρασία: 24°C
Σημ. Δρόσου: 15°C
Υγρασία: 57%
Βαρόμετρο: 1016 hPa
Νέφωση: Μερικώς νεφελώδης
Ορατότητα: 10 km
Λεπτομέρειες Νεφών: Μερικώς νεφελώδης 762 m
Μερικώς νεφελώδης 2134 m
2018/08/16 09:50 LGKZ 160950Z 00000KT 9999 SCT025 SCT070 24/15 Q1016
LGIO - Ioannina-Elev 476m
Απόσταση από meteothes.gr: ΔΝΔ 209km
Ενημερώθηκε: 16/08/2018 12:50
Μερικώς νεφελώδης
Μερικώς νεφελώδης
 Ανεμος από μεταβλητός
Ανεμος: μεταβλητός 0 km/h
Θερμοκρασία: 23°C
Σημ. Δρόσου: 17°C
Υγρασία: 69%
Βαρόμετρο: 1014 hPa
Νέφωση: Μερικώς νεφελώδης
Ορατότητα: 10 km
Λεπτομέρειες Νεφών: Διάσπαρτα Nέφη 1219 m
Μερικώς νεφελώδης 2438 m
2018/08/16 09:50 LGIO 160950Z /////KT 9999 FEW040 SCT080 23/17 Q1014
 
LGZA - Zakinthos-Elev 3m
Απόσταση από meteothes.gr: ΝΝΔ 367km
Ενημερώθηκε: 16/08/2018 12:50
Διάσπαρτα Nέφη
Διάσπαρτα Nέφη
 Ανεμος από ΝΝΑ
Ανεμος: ΝΝΑ 17 km/h
Θερμοκρασία: 27°C
Δείκτη Δυσφορίας: 29°C
Σημ. Δρόσου: 21°C
Υγρασία: 70%
Βαρόμετρο: 1011 hPa
Νέφωση: Διάσπαρτα Nέφη
Ορατότητα: 10 km
Λεπτομέρειες Νεφών: Διάσπαρτα Nέφη 762 m
2018/08/16 09:50 LGZA 160950Z 15009KT 9999 FEW025 27/21 Q1011
LGKR - Corfu Island-Elev 2m
Απόσταση από meteothes.gr: ΔΝΔ 282km
Ενημερώθηκε: 16/08/2018 12:50
Μερικώς νεφελώδης
Μερικώς νεφελώδης
 Ανεμος από μεταβλητός
Ανεμος: μεταβλητός 6 km/h
Θερμοκρασία: 25°C
Σημ. Δρόσου: 18°C
Υγρασία: 65%
Βαρόμετρο: 1012 hPa
Νέφωση: Μερικώς νεφελώδης
Ορατότητα: 10 km
Λεπτομέρειες Νεφών: Διάσπαρτα Nέφη 610 m
Μερικώς νεφελώδης 1219 m
2018/08/16 09:50 LGKR 160950Z VRB03KT 9999 FEW020 SCT040 25/18 Q1012 NOSIG
 
LGSO - Syros Island-Elev 72m
Απόσταση από meteothes.gr: ΝΝΑ 397km
Ενημερώθηκε: 16/08/2018 12:50
Αίθριος
Αίθριος
 Ανεμος από ΒΒΑ
Ανεμος: ΒΒΑ 17 km/h
Θερμοκρασία: 29°C
Δείκτη Δυσφορίας: 29°C
Σημ. Δρόσου: 18°C
Υγρασία: 51%
Βαρόμετρο: 1010 hPa
Συνθήκες: Αίθριος
Ορατότητα: πάνω από 10 km
2018/08/16 09:50 LGSO 160950Z 02009KT CAVOK 29/18 Q1010
LGMK - Mikonos Island-Elev 123m
Απόσταση από meteothes.gr: ΝΝΑ 412km
Ενημερώθηκε: 16/08/2018 12:50
Διάσπαρτα Nέφη
Διάσπαρτα Nέφη
 Ανεμος από ΒΒΔ
Ανεμος: ΒΒΔ 33 km/h
Θερμοκρασία: 27°C
Δείκτη Δυσφορίας: 29°C
Σημ. Δρόσου: 21°C
Υγρασία: 70%
Βαρόμετρο: 1010 hPa
Νέφωση: Διάσπαρτα Nέφη
Ορατότητα: 10 km
Λεπτομέρειες Νεφών: Διάσπαρτα Nέφη 549 m
2018/08/16 09:50 LGMK 160950Z 34018KT 9999 FEW018 27/21 Q1010
 
LGSR - Santorini Island-Elev 40m
Απόσταση από meteothes.gr: ΝΝΑ 520km
Ενημερώθηκε: 16/08/2018 12:50
Αίθριος
Αίθριος
 Ανεμος από Δ
Ανεμος: Δ 28 km/h
Θερμοκρασία: 30°C
Δείκτη Δυσφορίας: 31°C
Σημ. Δρόσου: 18°C
Υγρασία: 49%
Βαρόμετρο: 1010 hPa
Συνθήκες: Αίθριος
Ορατότητα: πάνω από 10 km
2018/08/16 09:50 LGSR 160950Z 28015KT CAVOK 30/18 Q1010
LGKL - Kalamata-Elev 8m
Απόσταση από meteothes.gr: Ν 405km
Ενημερώθηκε: 16/08/2018 12:50
Διάσπαρτα Nέφη
Διάσπαρτα Nέφη
 Ανεμος από Ν
Ανεμος: Ν 11 km/h
Θερμοκρασία: 30°C
Δείκτη Δυσφορίας: 31°C
Σημ. Δρόσου: 19°C
Υγρασία: 52%
Βαρόμετρο: 1011 hPa
Νέφωση: Διάσπαρτα Nέφη
Ορατότητα: 10 km
Λεπτομέρειες Νεφών: Διάσπαρτα Nέφη 914 m
2018/08/16 09:50 LGKL 160950Z 17006KT 9999 FEW030 30/19 Q1011
 
LGIR - Iraklion/Crete-Elev 5m
Απόσταση από meteothes.gr: ΝΝΑ 622km
Ενημερώθηκε: 16/08/2018 12:50
Διάσπαρτα Nέφη
Διάσπαρτα Nέφη
 Ανεμος από ΒΒΔ
Ανεμος: ΒΒΔ 17 km/h
Θερμοκρασία: 30°C
Δείκτη Δυσφορίας: 34°C
Σημ. Δρόσου: 23°C
Υγρασία: 66%
Βαρόμετρο: 1011 hPa
Νέφωση: Διάσπαρτα Nέφη
Ορατότητα: 10 km
Λεπτομέρειες Νεφών: Διάσπαρτα Nέφη 762 m
2018/08/16 09:50 LGIR 160950Z 34009KT 9999 FEW025 30/23 Q1011 NOSIG
LGRP - Rhodes-Elev 5m
Απόσταση από meteothes.gr: ΝΑ 649km
Ενημερώθηκε: 16/08/2018 12:50
Αίθριος
Αίθριος
 Ανεμος από ΔΝΔ
Ανεμος: ΔΝΔ 28 km/h
Θερμοκρασία: 29°C
Δείκτη Δυσφορίας: 31°C
Σημ. Δρόσου: 21°C
Υγρασία: 62%
Βαρόμετρο: 1007 hPa
Συνθήκες: Αίθριος
Ορατότητα: πάνω από 10 km
2018/08/16 09:50 LGRP 160950Z 25015KT CAVOK 29/21 Q1007 NOSIG
 
LWOH - Ohrid/FYROM-Elev 761m
Απόσταση από meteothes.gr: ΔΒΔ 188km
Ενημερώθηκε: 16/08/2018 13:00
Συννεφιά
Συννεφιά
 Ανεμος από ΔΒΔ
Ανεμος: ΔΒΔ 17 km/h
Θερμοκρασία: 19°C
Σημ. Δρόσου: 15°C
Υγρασία: 78%
Βαρόμετρο: 1016 hPa
Νέφωση: Συννεφιά
Ορατότητα: 10 km
Λεπτομέρειες Νεφών: κυρίως νεφελώδης 1219 m
Συννεφιά 2743 m
2018/08/16 10:00 LWOH 161000Z 30009KT 9999 BKN040 OVC090 19/15 Q1016
LBSF - Sofia/Bulgaria-Elev 595m
Απόσταση από meteothes.gr: Β 227km
Ενημερώθηκε: 16/08/2018 13:00
Μερικώς νεφελώδης
Μερικώς νεφελώδης
 Ανεμος από μεταβλητός
Ανεμος: μεταβλητός 11 km/h
Θερμοκρασία: 26°C
Σημ. Δρόσου: 12°C
Υγρασία: 42%
Βαρόμετρο: 1016 hPa
Νέφωση: Μερικώς νεφελώδης
Ορατότητα: 10 km
Λεπτομέρειες Νεφών: Μερικώς νεφελώδης 1829 m
2018/08/16 10:00 LBSF 161000Z VRB06KT 9999 SCT060 26/12 Q1016 NOSIG

(*) Μερικές αναφορές παρουσιάζουν λιγότερα στοιχεία γιατί οι αρχικές είναι ελλιπείς ή έχουν λάθος μορφοποίηση!